createdAt,value
2022-11-13T00:00:16.465Z,10.05
2022-11-13T00:00:42.223Z,9.59
2022-11-13T00:01:28.501Z,9.16
2022-11-13T00:01:54.486Z,9.31
2022-11-13T00:02:20.522Z,9.45
2022-11-13T00:02:46.532Z,9.51
2022-11-13T00:03:12.495Z,9.69
2022-11-13T00:03:38.421Z,9.34
2022-11-13T00:04:04.633Z,8.75
2022-11-13T00:04:30.788Z,8.56
2022-11-13T00:04:56.912Z,9.09
2022-11-13T00:05:23.248Z,9.04
2022-11-13T00:05:49.118Z,8.82
2022-11-13T00:06:16.562Z,9.07
2022-11-13T00:06:42.590Z,9.40
2022-11-13T00:07:08.703Z,9.02
2022-11-13T00:07:34.989Z,8.68
2022-11-13T00:08:02.499Z,9.26
2022-11-13T00:08:31.055Z,9.49
2022-11-13T00:08:57.343Z,9.01
2022-11-13T00:09:23.373Z,8.94
2022-11-13T00:09:49.107Z,8.76
2022-11-13T00:10:18.458Z,8.84
2022-11-13T00:10:44.496Z,9.19
2022-11-13T00:11:19.008Z,9.06
2022-11-13T00:11:44.937Z,9.11
2022-11-13T00:12:11.110Z,9.20
2022-11-13T00:12:37.295Z,9.21
2022-11-13T00:13:03.605Z,9.25
2022-11-13T00:13:30.675Z,9.30
2022-11-13T00:13:56.871Z,8.73
2022-11-13T00:14:22.990Z,8.59
2022-11-13T00:14:48.751Z,8.84
2022-11-13T00:15:14.853Z,9.02
2022-11-13T00:15:40.674Z,8.69
2022-11-13T00:16:10.481Z,9.01
2022-11-13T00:16:36.460Z,8.90
2022-11-13T00:17:02.518Z,8.91
2022-11-13T00:17:31.578Z,8.88
2022-11-13T00:18:02.750Z,8.63
2022-11-13T00:18:32.978Z,8.99
2022-11-13T00:18:58.771Z,9.01
2022-11-13T00:19:24.783Z,8.80
2022-11-13T00:19:50.601Z,8.73
2022-11-13T00:20:17.221Z,8.95
2022-11-13T00:20:43.098Z,9.26
2022-11-13T00:21:16.324Z,9.56
2022-11-13T00:21:42.314Z,9.50
2022-11-13T00:22:08.597Z,9.05
2022-11-13T00:22:34.572Z,9.27
2022-11-13T00:23:00.762Z,9.59
2022-11-13T00:23:26.849Z,9.31
2022-11-13T00:23:53.357Z,9.40
2022-11-13T00:24:19.423Z,9.27
2022-11-13T00:24:45.240Z,9.21
2022-11-13T00:25:11.303Z,9.30
2022-11-13T00:25:37.374Z,9.30
2022-11-13T00:26:16.387Z,9.76
2022-11-13T00:26:43.132Z,9.96
2022-11-13T00:27:09.182Z,9.49
2022-11-13T00:27:35.367Z,9.46
2022-11-13T00:28:01.168Z,9.50
2022-11-13T00:28:27.505Z,9.41
2022-11-13T00:28:55.842Z,9.61
2022-11-13T00:29:21.705Z,9.86
2022-11-13T00:29:47.895Z,9.70
2022-11-13T00:30:19.071Z,10.07
2022-11-13T00:30:45.465Z,10.36
2022-11-13T00:31:13.566Z,10.24
2022-11-13T00:31:39.549Z,10.27
2022-11-13T00:32:05.935Z,10.35
2022-11-13T00:32:31.776Z,10.64
2022-11-13T00:32:57.637Z,10.04
2022-11-13T00:33:45.472Z,10.14
2022-11-13T00:34:46.566Z,10.26
2022-11-13T00:34:56.821Z,10.25
2022-11-13T00:35:22.645Z,10.56
2022-11-13T00:35:48.760Z,10.46
2022-11-13T00:36:17.371Z,10.41
2022-11-13T00:36:43.548Z,10.46
2022-11-13T00:37:09.558Z,10.61
2022-11-13T00:37:35.802Z,10.20
2022-11-13T00:38:01.920Z,10.50
2022-11-13T00:38:28.153Z,10.41
2022-11-13T00:38:55.301Z,10.41
2022-11-13T00:39:21.332Z,10.56
2022-11-13T00:39:47.409Z,10.51
2022-11-13T00:40:16.473Z,10.14
2022-11-13T00:40:42.669Z,10.25
2022-11-13T00:41:08.758Z,9.91
2022-11-13T00:41:34.891Z,9.73
2022-11-13T00:42:00.763Z,10.10
2022-11-13T00:42:26.837Z,10.25
2022-11-13T00:42:52.776Z,10.19
2022-11-13T00:43:18.891Z,9.91
2022-11-13T00:43:44.668Z,9.98
2022-11-13T00:44:10.534Z,10.20
2022-11-13T00:44:36.367Z,10.04
2022-11-13T00:45:02.369Z,9.95
2022-11-13T00:45:28.426Z,9.85
2022-11-13T00:45:54.748Z,9.94
2022-11-13T00:46:20.784Z,10.07
2022-11-13T00:46:46.545Z,10.38
2022-11-13T00:47:12.750Z,10.68
2022-11-13T00:47:38.941Z,10.69
2022-11-13T00:48:04.966Z,10.43
2022-11-13T00:48:31.178Z,10.52
2022-11-13T00:48:57.353Z,10.56
2022-11-13T00:49:23.439Z,10.63
2022-11-13T00:49:49.342Z,10.88
2022-11-13T00:50:15.502Z,10.79
2022-11-13T00:50:41.511Z,10.50
2022-11-13T00:51:07.694Z,10.57
2022-11-13T00:51:33.877Z,10.60
2022-11-13T00:52:00.511Z,10.34
2022-11-13T00:52:26.331Z,10.81
2022-11-13T00:52:52.363Z,10.68
2022-11-13T00:53:18.435Z,10.75
2022-11-13T00:53:44.494Z,10.73
2022-11-13T00:54:10.475Z,10.74
2022-11-13T00:54:36.367Z,10.66
2022-11-13T00:55:02.497Z,10.96
2022-11-13T00:55:28.661Z,11.01
2022-11-13T00:55:54.593Z,11.00
2022-11-13T00:56:20.503Z,10.85
2022-11-13T00:56:46.601Z,11.04
2022-11-13T00:57:12.650Z,10.69
2022-11-13T00:57:38.717Z,10.28
2022-11-13T00:58:05.209Z,10.10
2022-11-13T00:58:31.456Z,10.26
2022-11-13T00:58:57.629Z,10.50
2022-11-13T00:59:23.362Z,10.29
2022-11-13T00:59:49.125Z,10.39
2022-11-13T01:00:15.396Z,11.01
2022-11-13T01:00:42.972Z,11.14
2022-11-13T01:01:14.803Z,10.90
2022-11-13T01:01:40.624Z,10.76
2022-11-13T01:02:06.330Z,10.77
2022-11-13T01:02:32.232Z,10.69
2022-11-13T01:03:01.878Z,10.68
2022-11-13T01:03:27.620Z,10.95
2022-11-13T01:03:53.880Z,10.75
2022-11-13T01:04:19.769Z,10.39
2022-11-13T01:04:45.893Z,9.71
2022-11-13T01:05:12.281Z,9.84
2022-11-13T01:05:43.914Z,10.19
2022-11-13T01:06:18.611Z,10.21
2022-11-13T01:06:45.583Z,10.55
2022-11-13T01:07:11.771Z,10.81
2022-11-13T01:07:37.967Z,10.82
2022-11-13T01:08:04.622Z,10.56
2022-11-13T01:08:30.755Z,10.45
2022-11-13T01:09:00.169Z,10.02
2022-11-13T01:09:26.244Z,10.19
2022-11-13T01:09:52.383Z,10.48
2022-11-13T01:10:20.188Z,10.63
2022-11-13T01:10:53.507Z,10.34
2022-11-13T01:11:22.098Z,9.82
2022-11-13T01:11:47.993Z,9.40
2022-11-13T01:12:14.127Z,9.63
2022-11-13T01:12:40.212Z,9.81
2022-11-13T01:13:06.343Z,9.88
2022-11-13T01:13:32.618Z,9.38
2022-11-13T01:13:59.016Z,9.41
2022-11-13T01:14:25.014Z,9.44
2022-11-13T01:14:51.007Z,9.76
2022-11-13T01:15:17.225Z,9.30
2022-11-13T01:15:44.631Z,9.05
2022-11-13T01:16:12.387Z,9.00
2022-11-13T01:16:38.444Z,8.69
2022-11-13T01:17:04.385Z,8.21
2022-11-13T01:17:33.071Z,7.76
2022-11-13T01:18:00.014Z,7.31
2022-11-13T01:18:26.304Z,6.49
2022-11-13T01:18:55.574Z,6.38
2022-11-13T01:19:21.501Z,6.34
2022-11-13T01:19:47.884Z,6.04
2022-11-13T01:20:13.819Z,5.82
2022-11-13T01:20:39.584Z,5.44
2022-11-13T01:21:10.354Z,5.04
2022-11-13T01:21:36.952Z,5.03
2022-11-13T01:22:03.205Z,5.03
2022-11-13T01:22:28.961Z,4.89
2022-11-13T01:22:55.048Z,5.20
2022-11-13T01:23:21.175Z,4.57
2022-11-13T01:23:47.755Z,4.80
2022-11-13T01:24:13.566Z,4.84
2022-11-13T01:24:39.939Z,4.40
2022-11-13T01:25:06.412Z,4.11
2022-11-13T01:25:32.349Z,4.31
2022-11-13T01:26:09.524Z,4.46
2022-11-13T01:26:35.211Z,4.61
2022-11-13T01:27:01.252Z,4.56
2022-11-13T01:27:27.231Z,4.45
2022-11-13T01:27:53.245Z,4.44
2022-11-13T01:28:19.312Z,4.31
2022-11-13T01:28:46.435Z,4.13
2022-11-13T01:29:12.783Z,4.15
2022-11-13T01:29:39.220Z,4.46
2022-11-13T01:30:06.224Z,4.36
2022-11-13T01:30:32.365Z,4.28
2022-11-13T01:30:58.248Z,4.01
2022-11-13T01:31:27.606Z,4.03
2022-11-13T01:31:54.468Z,3.91
2022-11-13T01:32:20.386Z,4.25
2022-11-13T01:32:46.677Z,4.28
2022-11-13T01:33:12.547Z,4.07
2022-11-13T01:33:38.607Z,4.21
2022-11-13T01:34:04.733Z,4.44
2022-11-13T01:34:30.564Z,4.31
2022-11-13T01:34:56.578Z,4.25
2022-11-13T01:35:22.750Z,3.90
2022-11-13T01:35:48.401Z,3.94
2022-11-13T01:36:17.761Z,3.92
2022-11-13T01:36:43.824Z,3.86
2022-11-13T01:37:09.909Z,3.90
2022-11-13T01:37:36.063Z,3.89
2022-11-13T01:38:02.213Z,4.11
2022-11-13T01:38:28.869Z,4.31
2022-11-13T01:38:57.433Z,4.28
2022-11-13T01:39:23.534Z,4.45
2022-11-13T01:39:49.592Z,4.36
2022-11-13T01:40:15.733Z,4.22
2022-11-13T01:40:48.705Z,4.25
2022-11-13T01:41:23.149Z,4.01
2022-11-13T01:41:49.976Z,4.05
2022-11-13T01:42:15.899Z,4.31
2022-11-13T01:42:41.783Z,4.47
2022-11-13T01:43:29.021Z,4.39
2022-11-13T01:43:56.462Z,4.11
2022-11-13T01:44:22.617Z,4.25
2022-11-13T01:44:57.330Z,4.29
2022-11-13T01:46:00.554Z,4.14
2022-11-13T01:46:29.274Z,4.07
2022-11-13T01:46:57.281Z,4.20
2022-11-13T01:47:24.320Z,4.32
2022-11-13T01:47:51.206Z,4.24
2022-11-13T01:48:17.033Z,4.35
2022-11-13T01:48:52.411Z,4.01
2022-11-13T01:49:40.828Z,3.95
2022-11-13T01:50:10.312Z,4.07
2022-11-13T01:50:36.249Z,3.99
2022-11-13T01:51:03.445Z,3.86
2022-11-13T01:51:45.657Z,3.99
2022-11-13T01:52:19.602Z,4.01
2022-11-13T01:52:45.409Z,4.18
2022-11-13T01:53:11.597Z,4.01
2022-11-13T01:53:37.701Z,3.91
2022-11-13T01:54:08.170Z,3.65
2022-11-13T01:54:45.637Z,3.97
2022-11-13T01:55:18.678Z,4.28
2022-11-13T01:55:44.754Z,4.21
2022-11-13T01:56:11.023Z,4.21
2022-11-13T01:56:37.344Z,4.03
2022-11-13T01:57:05.670Z,4.15
2022-11-13T01:57:32.028Z,4.26
2022-11-13T01:57:59.853Z,4.44
2022-11-13T01:58:25.870Z,4.55
2022-11-13T01:58:58.125Z,4.28
2022-11-13T01:59:28.191Z,4.30
2022-11-13T02:00:00.815Z,4.18
2022-11-13T02:00:26.707Z,4.10
2022-11-13T02:00:52.732Z,4.07
2022-11-13T02:01:18.829Z,4.11
2022-11-13T02:01:44.873Z,4.29
2022-11-13T02:02:11.015Z,4.35
2022-11-13T02:02:37.408Z,4.41
2022-11-13T02:03:03.822Z,4.46
2022-11-13T02:03:29.675Z,4.25
2022-11-13T02:03:55.812Z,4.51
2022-11-13T02:04:21.834Z,4.39
2022-11-13T02:04:47.993Z,4.16
2022-11-13T02:05:14.081Z,4.40
2022-11-13T02:05:40.155Z,4.44
2022-11-13T02:06:06.497Z,4.50
2022-11-13T02:06:52.784Z,4.47
2022-11-13T02:07:21.961Z,4.44
2022-11-13T02:07:48.027Z,4.43
2022-11-13T02:08:13.914Z,4.45
2022-11-13T02:08:40.207Z,4.46
2022-11-13T02:09:07.160Z,4.39
2022-11-13T02:09:45.233Z,4.32
2022-11-13T02:10:11.216Z,4.45
2022-11-13T02:10:37.165Z,4.22
2022-11-13T02:11:03.694Z,4.81
2022-11-13T02:11:29.498Z,4.86
2022-11-13T02:11:56.093Z,4.63
2022-11-13T02:12:34.314Z,4.76
2022-11-13T02:13:00.018Z,4.95
2022-11-13T02:13:26.247Z,4.88
2022-11-13T02:13:52.292Z,4.96
2022-11-13T02:14:19.769Z,5.07
2022-11-13T02:14:50.325Z,5.47
2022-11-13T02:15:17.420Z,5.70
2022-11-13T02:15:45.373Z,5.59
2022-11-13T02:16:13.058Z,5.45
2022-11-13T02:16:42.071Z,5.95
2022-11-13T02:17:10.506Z,6.19
2022-11-13T02:17:55.691Z,6.07
2022-11-13T02:18:23.152Z,6.36
2022-11-13T02:18:49.224Z,6.76
2022-11-13T02:19:27.108Z,6.76
2022-11-13T02:19:58.715Z,6.96
2022-11-13T02:20:47.389Z,7.07
2022-11-13T02:21:22.870Z,7.29
2022-11-13T02:21:53.781Z,7.74
2022-11-13T02:22:34.805Z,8.41
2022-11-13T02:23:17.703Z,8.59
2022-11-13T02:24:22.555Z,7.96
2022-11-13T02:24:53.672Z,7.43
2022-11-13T02:25:22.069Z,7.31
2022-11-13T02:25:53.079Z,7.60
2022-11-13T02:26:21.524Z,7.85
2022-11-13T02:26:48.779Z,7.72
2022-11-13T02:27:38.917Z,7.64
2022-11-13T02:28:04.883Z,7.21
2022-11-13T02:28:31.243Z,6.89
2022-11-13T02:28:57.105Z,6.72
2022-11-13T02:29:23.047Z,6.50
2022-11-13T02:29:49.183Z,6.03
2022-11-13T02:30:26.748Z,5.34
2022-11-13T02:30:53.236Z,5.75
2022-11-13T02:31:19.372Z,5.86
2022-11-13T02:31:45.194Z,6.00
2022-11-13T02:32:11.487Z,5.69
2022-11-13T02:32:46.227Z,5.57
2022-11-13T02:33:31.212Z,5.51
2022-11-13T02:33:57.337Z,5.65
2022-11-13T02:34:23.606Z,5.66
2022-11-13T02:34:49.219Z,5.61
2022-11-13T02:35:21.497Z,5.47
2022-11-13T02:35:47.396Z,5.39
2022-11-13T02:36:14.133Z,5.84
2022-11-13T02:36:40.206Z,5.89
2022-11-13T02:37:06.296Z,5.59
2022-11-13T02:37:32.421Z,5.66
2022-11-13T02:38:02.338Z,5.93
2022-11-13T02:38:28.607Z,5.96
2022-11-13T02:38:59.397Z,5.47
2022-11-13T02:39:25.165Z,5.44
2022-11-13T02:39:51.165Z,5.46
2022-11-13T02:40:18.252Z,5.39
2022-11-13T02:40:43.979Z,5.13
2022-11-13T02:41:10.014Z,5.26
2022-11-13T02:41:36.056Z,5.25
2022-11-13T02:42:02.315Z,5.68
2022-11-13T02:42:28.086Z,5.64
2022-11-13T02:42:54.342Z,5.35
2022-11-13T02:43:20.102Z,5.28
2022-11-13T02:43:46.130Z,5.45
2022-11-13T02:44:12.312Z,5.47
2022-11-13T02:44:38.332Z,5.45
2022-11-13T02:45:05.687Z,5.34
2022-11-13T02:45:31.482Z,5.28
2022-11-13T02:45:57.622Z,5.35
2022-11-13T02:46:23.966Z,5.18
2022-11-13T02:46:49.693Z,5.21
2022-11-13T02:47:15.796Z,5.46
2022-11-13T02:47:41.805Z,5.47
2022-11-13T02:48:08.175Z,5.09
2022-11-13T02:48:34.350Z,4.57
2022-11-13T02:49:00.219Z,4.44
2022-11-13T02:49:26.384Z,4.78
2022-11-13T02:49:52.365Z,4.81
2022-11-13T02:50:18.531Z,4.65
2022-11-13T02:50:44.819Z,4.79
2022-11-13T02:51:10.675Z,5.00
2022-11-13T02:51:36.933Z,4.96
2022-11-13T02:52:02.959Z,4.64
2022-11-13T02:52:31.252Z,4.70
2022-11-13T02:52:57.447Z,4.59
2022-11-13T02:53:23.527Z,3.81
2022-11-13T02:53:49.553Z,3.83
2022-11-13T02:54:17.126Z,4.03
2022-11-13T02:54:42.947Z,3.88
2022-11-13T02:55:09.533Z,3.67
2022-11-13T02:55:35.819Z,3.75
2022-11-13T02:56:01.648Z,3.97
2022-11-13T02:56:27.615Z,3.46
2022-11-13T02:56:53.650Z,2.78
2022-11-13T02:57:19.631Z,2.86
2022-11-13T02:57:45.762Z,2.71
2022-11-13T02:58:11.645Z,2.61
2022-11-13T02:58:37.805Z,2.51
2022-11-13T02:59:04.188Z,2.29
2022-11-13T02:59:30.205Z,2.56
2022-11-13T02:59:55.916Z,2.35
2022-11-13T03:00:21.616Z,2.13
2022-11-13T03:00:48.173Z,2.00
2022-11-13T03:01:14.378Z,2.04
2022-11-13T03:01:40.408Z,2.01
2022-11-13T03:02:06.480Z,1.99
2022-11-13T03:02:32.454Z,1.95
2022-11-13T03:02:58.534Z,1.90
2022-11-13T03:03:48.089Z,2.10
2022-11-13T03:04:10.310Z,1.99
2022-11-13T03:05:09.853Z,1.79
2022-11-13T03:05:22.860Z,1.75
2022-11-13T03:05:50.344Z,1.90
2022-11-13T03:06:16.512Z,1.84
2022-11-13T03:06:42.674Z,1.95
2022-11-13T03:07:08.732Z,1.83
2022-11-13T03:07:35.038Z,1.76
2022-11-13T03:08:01.065Z,1.88
2022-11-13T03:08:27.693Z,1.75
2022-11-13T03:08:54.077Z,1.83
2022-11-13T03:09:20.219Z,1.90
2022-11-13T03:09:46.111Z,1.89
2022-11-13T03:10:12.493Z,1.90
2022-11-13T03:10:38.445Z,1.92
2022-11-13T03:11:09.599Z,1.90
2022-11-13T03:11:35.359Z,1.90
2022-11-13T03:12:01.462Z,1.79
2022-11-13T03:12:27.691Z,1.59
2022-11-13T03:12:53.689Z,1.89
2022-11-13T03:13:20.195Z,1.94
2022-11-13T03:13:46.115Z,1.76
2022-11-13T03:14:12.209Z,2.04
2022-11-13T03:14:38.267Z,1.70
2022-11-13T03:15:05.701Z,1.70
2022-11-13T03:15:31.572Z,1.81
2022-11-13T03:15:57.607Z,1.74
2022-11-13T03:16:23.750Z,1.73
2022-11-13T03:16:49.897Z,1.50
2022-11-13T03:17:15.875Z,1.54
2022-11-13T03:17:42.016Z,1.61
2022-11-13T03:18:08.899Z,1.50
2022-11-13T03:18:34.859Z,1.56
2022-11-13T03:19:00.774Z,1.52
2022-11-13T03:19:27.248Z,1.44
2022-11-13T03:19:53.181Z,1.56
2022-11-13T03:20:19.391Z,1.79
2022-11-13T03:20:45.204Z,1.58
2022-11-13T03:21:13.526Z,1.41
2022-11-13T03:21:39.648Z,1.23
2022-11-13T03:22:05.808Z,1.34
2022-11-13T03:22:31.804Z,1.46
2022-11-13T03:22:58.160Z,1.36
2022-11-13T03:23:24.265Z,1.39
2022-11-13T03:23:50.054Z,1.55
2022-11-13T03:24:15.928Z,1.33
2022-11-13T03:24:41.744Z,1.34
2022-11-13T03:25:10.735Z,1.39
2022-11-13T03:25:36.788Z,1.35
2022-11-13T03:26:07.661Z,1.31
2022-11-13T03:26:34.228Z,1.30
2022-11-13T03:27:00.017Z,1.30
2022-11-13T03:27:25.749Z,1.26
2022-11-13T03:27:51.999Z,1.40
2022-11-13T03:28:17.699Z,1.44
2022-11-13T03:28:44.135Z,1.36
2022-11-13T03:29:10.136Z,1.31
2022-11-13T03:29:36.877Z,1.30
2022-11-13T03:30:02.638Z,1.44
2022-11-13T03:30:29.054Z,1.44
2022-11-13T03:30:54.837Z,1.36
2022-11-13T03:31:21.172Z,1.30
2022-11-13T03:31:47.299Z,1.34
2022-11-13T03:32:13.531Z,1.26
2022-11-13T03:32:39.495Z,1.13
2022-11-13T03:33:05.597Z,1.23
2022-11-13T03:33:31.810Z,1.26
2022-11-13T03:33:57.726Z,1.26
2022-11-13T03:34:23.730Z,1.35
2022-11-13T03:34:49.779Z,1.27
2022-11-13T03:35:15.616Z,1.36
2022-11-13T03:35:47.014Z,1.38
2022-11-13T03:36:13.012Z,1.46
2022-11-13T03:36:39.088Z,1.52
2022-11-13T03:37:04.958Z,1.33
2022-11-13T03:37:30.866Z,1.21
2022-11-13T03:37:57.068Z,1.26
2022-11-13T03:38:23.538Z,1.20
2022-11-13T03:38:49.385Z,1.31
2022-11-13T03:39:15.504Z,1.36
2022-11-13T03:39:41.633Z,1.34
2022-11-13T03:40:08.270Z,1.38
2022-11-13T03:40:34.799Z,1.27
2022-11-13T03:41:00.826Z,1.45
2022-11-13T03:41:26.816Z,1.49
2022-11-13T03:41:52.570Z,1.35
2022-11-13T03:42:18.490Z,1.46
2022-11-13T03:42:44.720Z,1.39
2022-11-13T03:43:11.106Z,1.27
2022-11-13T03:43:37.754Z,1.30
2022-11-13T03:44:03.850Z,1.30
2022-11-13T03:44:30.077Z,1.30
2022-11-13T03:44:55.982Z,1.33
2022-11-13T03:45:22.230Z,1.34
2022-11-13T03:45:48.553Z,1.41
2022-11-13T03:46:14.398Z,1.38
2022-11-13T03:46:40.271Z,1.39
2022-11-13T03:47:06.400Z,1.40
2022-11-13T03:47:32.529Z,1.36
2022-11-13T03:47:58.342Z,1.46
2022-11-13T03:48:24.236Z,1.60
2022-11-13T03:48:50.050Z,1.30
2022-11-13T03:49:15.880Z,1.20
2022-11-13T03:49:41.968Z,1.33
2022-11-13T03:50:08.430Z,1.50
2022-11-13T03:50:34.562Z,1.41
2022-11-13T03:51:01.402Z,1.44
2022-11-13T03:51:27.475Z,1.45
2022-11-13T03:51:53.283Z,1.55
2022-11-13T03:52:19.556Z,1.36
2022-11-13T03:52:45.362Z,1.33
2022-11-13T03:53:11.849Z,1.39
2022-11-13T03:53:37.604Z,1.36
2022-11-13T03:54:03.398Z,1.25
2022-11-13T03:54:29.103Z,1.35
2022-11-13T03:54:55.289Z,1.44
2022-11-13T03:55:21.059Z,1.44
2022-11-13T03:55:47.548Z,1.39
2022-11-13T03:56:13.590Z,1.27
2022-11-13T03:56:39.434Z,1.51
2022-11-13T03:57:05.536Z,1.48
2022-11-13T03:57:32.408Z,1.39
2022-11-13T03:57:58.230Z,1.30
2022-11-13T03:58:24.242Z,1.52
2022-11-13T03:58:50.165Z,1.69
2022-11-13T03:59:16.250Z,1.40
2022-11-13T03:59:42.088Z,1.40
2022-11-13T04:00:08.422Z,1.40
2022-11-13T04:00:34.738Z,1.30
2022-11-13T04:01:00.436Z,1.48
2022-11-13T04:01:26.769Z,1.56
2022-11-13T04:01:52.913Z,1.42
2022-11-13T04:02:18.581Z,1.41
2022-11-13T04:02:44.692Z,1.58
2022-11-13T04:03:10.688Z,1.50
2022-11-13T04:03:36.780Z,1.40
2022-11-13T04:04:02.970Z,1.56
2022-11-13T04:04:31.816Z,1.95
2022-11-13T04:04:57.909Z,1.54
2022-11-13T04:05:24.013Z,1.48
2022-11-13T04:05:51.266Z,1.60
2022-11-13T04:06:17.782Z,1.50
2022-11-13T04:06:43.928Z,1.48
2022-11-13T04:07:09.893Z,1.50
2022-11-13T04:07:35.891Z,1.41
2022-11-13T04:08:01.619Z,1.50
2022-11-13T04:08:27.963Z,1.63
2022-11-13T04:08:57.738Z,1.54
2022-11-13T04:09:23.881Z,1.55
2022-11-13T04:09:49.657Z,1.48
2022-11-13T04:10:15.806Z,1.38
2022-11-13T04:10:41.972Z,1.54
2022-11-13T04:11:09.708Z,1.50
2022-11-13T04:11:35.664Z,1.60
2022-11-13T04:12:01.555Z,1.70
2022-11-13T04:12:27.650Z,1.81
2022-11-13T04:12:53.866Z,1.86
2022-11-13T04:13:19.851Z,1.67
2022-11-13T04:13:46.064Z,1.55
2022-11-13T04:14:11.933Z,1.48
2022-11-13T04:14:37.988Z,1.36
2022-11-13T04:15:04.053Z,1.38
2022-11-13T04:15:29.787Z,1.55
2022-11-13T04:15:55.735Z,1.52
2022-11-13T04:16:21.811Z,1.38
2022-11-13T04:16:47.872Z,1.52
2022-11-13T04:17:13.882Z,1.58
2022-11-13T04:17:40.261Z,1.52
2022-11-13T04:18:06.165Z,1.42
2022-11-13T04:18:32.461Z,1.60
2022-11-13T04:18:58.100Z,1.60
2022-11-13T04:19:24.185Z,1.67
2022-11-13T04:19:50.108Z,1.56
2022-11-13T04:20:16.857Z,1.50
2022-11-13T04:20:42.659Z,1.48
2022-11-13T04:21:09.265Z,1.52
2022-11-13T04:21:35.085Z,1.48
2022-11-13T04:22:00.848Z,1.49
2022-11-13T04:22:26.836Z,1.36
2022-11-13T04:22:52.891Z,1.36
2022-11-13T04:23:19.024Z,1.40
2022-11-13T04:23:44.657Z,1.46
2022-11-13T04:24:10.782Z,1.55
2022-11-13T04:24:36.536Z,1.59
2022-11-13T04:25:02.835Z,1.65
2022-11-13T04:25:28.953Z,1.50
2022-11-13T04:25:55.208Z,1.64
2022-11-13T04:26:21.251Z,1.59
2022-11-13T04:26:47.215Z,1.61
2022-11-13T04:27:13.321Z,1.51
2022-11-13T04:27:39.376Z,1.61
2022-11-13T04:28:05.541Z,1.77
2022-11-13T04:28:32.192Z,1.58
2022-11-13T04:28:58.250Z,1.46
2022-11-13T04:29:24.155Z,1.64
2022-11-13T04:29:50.279Z,1.65
2022-11-13T04:30:16.416Z,1.55
2022-11-13T04:30:45.167Z,1.49
2022-11-13T04:31:11.203Z,1.44
2022-11-13T04:31:37.226Z,1.60
2022-11-13T04:32:03.248Z,1.58
2022-11-13T04:32:29.358Z,1.65
2022-11-13T04:32:55.586Z,1.60
2022-11-13T04:33:22.005Z,1.56
2022-11-13T04:33:47.923Z,1.46
2022-11-13T04:34:14.154Z,1.44
2022-11-13T04:34:40.145Z,1.46
2022-11-13T04:35:07.035Z,1.42
2022-11-13T04:35:33.219Z,1.44
2022-11-13T04:35:59.150Z,1.40
2022-11-13T04:36:25.077Z,1.44
2022-11-13T04:36:51.300Z,1.46
2022-11-13T04:37:17.430Z,1.46
2022-11-13T04:37:43.439Z,1.56
2022-11-13T04:38:09.698Z,1.59
2022-11-13T04:38:35.613Z,1.64
2022-11-13T04:39:01.613Z,1.44
2022-11-13T04:39:27.419Z,1.56
2022-11-13T04:39:53.128Z,1.74
2022-11-13T04:40:18.993Z,1.52
2022-11-13T04:40:45.045Z,1.51
2022-11-13T04:41:32.050Z,1.59
2022-11-13T04:42:16.814Z,1.56
2022-11-13T04:42:51.661Z,1.50
2022-11-13T04:43:17.451Z,1.56
2022-11-13T04:43:43.310Z,1.59
2022-11-13T04:44:09.423Z,1.80
2022-11-13T04:44:35.332Z,1.64
2022-11-13T04:45:01.391Z,1.66
2022-11-13T04:45:27.855Z,1.66
2022-11-13T04:45:54.015Z,1.67
2022-11-13T04:46:20.174Z,1.83
2022-11-13T04:46:46.287Z,1.77
2022-11-13T04:47:12.315Z,1.64
2022-11-13T04:47:38.282Z,1.59
2022-11-13T04:48:04.888Z,1.63
2022-11-13T04:48:31.299Z,1.45
2022-11-13T04:48:57.108Z,1.34
2022-11-13T04:49:23.188Z,1.56
2022-11-13T04:49:49.178Z,1.54
2022-11-13T04:50:16.243Z,1.50
2022-11-13T04:50:42.471Z,1.55
2022-11-13T04:51:08.411Z,1.71
2022-11-13T04:51:34.464Z,1.61
2022-11-13T04:52:00.360Z,1.41
2022-11-13T04:52:26.449Z,1.56
2022-11-13T04:52:52.464Z,1.45
2022-11-13T04:53:18.423Z,1.46
2022-11-13T04:53:44.591Z,1.52
2022-11-13T04:54:10.737Z,1.63
2022-11-13T04:54:36.613Z,1.56
2022-11-13T04:55:03.211Z,1.51
2022-11-13T04:55:29.370Z,1.61
2022-11-13T04:55:55.687Z,1.67
2022-11-13T04:56:21.550Z,1.59
2022-11-13T04:56:47.466Z,1.49
2022-11-13T04:57:13.617Z,1.44
2022-11-13T04:57:39.787Z,1.46
2022-11-13T04:58:05.673Z,1.51
2022-11-13T04:58:32.025Z,1.67
2022-11-13T04:58:58.156Z,1.51
2022-11-13T04:59:24.788Z,1.54
2022-11-13T04:59:50.697Z,1.60
2022-11-13T05:00:18.001Z,1.56
2022-11-13T05:00:43.966Z,1.50
2022-11-13T05:01:09.969Z,1.55
2022-11-13T05:01:36.899Z,1.60
2022-11-13T05:02:03.303Z,1.48
2022-11-13T05:02:29.040Z,1.58
2022-11-13T05:02:56.647Z,1.55
2022-11-13T05:03:22.784Z,1.51
2022-11-13T05:03:48.787Z,1.60
2022-11-13T05:04:16.441Z,1.51
2022-11-13T05:04:42.597Z,1.52
2022-11-13T05:05:09.205Z,1.67
2022-11-13T05:05:35.218Z,1.55
2022-11-13T05:06:08.924Z,1.42
2022-11-13T05:06:34.827Z,1.42
2022-11-13T05:07:01.079Z,1.63
2022-11-13T05:07:27.687Z,1.45
2022-11-13T05:07:53.847Z,1.55
2022-11-13T05:08:19.853Z,1.55
2022-11-13T05:08:45.977Z,1.60
2022-11-13T05:09:12.212Z,1.58
2022-11-13T05:09:38.512Z,1.45
2022-11-13T05:10:05.471Z,1.51
2022-11-13T05:10:31.462Z,1.58
2022-11-13T05:10:57.512Z,1.56
2022-11-13T05:11:23.728Z,1.50
2022-11-13T05:11:49.774Z,1.54
2022-11-13T05:12:16.022Z,1.52
2022-11-13T05:12:41.990Z,1.41
2022-11-13T05:13:08.010Z,1.42
2022-11-13T05:13:36.227Z,1.58
2022-11-13T05:14:03.685Z,1.69
2022-11-13T05:14:29.391Z,1.60
2022-11-13T05:14:55.456Z,1.59
2022-11-13T05:15:21.573Z,1.50
2022-11-13T05:15:47.655Z,1.55
2022-11-13T05:16:15.037Z,1.56
2022-11-13T05:16:41.331Z,1.54
2022-11-13T05:17:09.510Z,1.59
2022-11-13T05:17:35.440Z,1.40
2022-11-13T05:18:01.563Z,1.40
2022-11-13T05:18:27.868Z,1.55
2022-11-13T05:18:53.809Z,1.56
2022-11-13T05:19:19.894Z,1.46
2022-11-13T05:19:45.957Z,1.40
2022-11-13T05:20:12.322Z,1.38
2022-11-13T05:20:38.475Z,1.40
2022-11-13T05:21:05.606Z,1.35
2022-11-13T05:21:31.455Z,1.38
2022-11-13T05:21:57.682Z,1.51
2022-11-13T05:22:23.467Z,1.50
2022-11-13T05:22:49.471Z,1.40
2022-11-13T05:23:15.570Z,1.40
2022-11-13T05:23:41.765Z,1.49
2022-11-13T05:24:10.204Z,1.56
2022-11-13T05:24:36.152Z,1.59
2022-11-13T05:25:02.147Z,1.54
2022-11-13T05:25:28.286Z,1.45
2022-11-13T05:26:14.013Z,1.41
2022-11-13T05:26:40.903Z,1.34
2022-11-13T05:27:07.079Z,1.40
2022-11-13T05:27:33.015Z,1.38
2022-11-13T05:27:59.369Z,1.61
2022-11-13T05:28:26.972Z,1.59
2022-11-13T05:28:53.302Z,1.51
2022-11-13T05:29:19.200Z,1.50
2022-11-13T05:29:45.406Z,1.56
2022-11-13T05:30:11.661Z,1.48
2022-11-13T05:30:37.415Z,1.74
2022-11-13T05:31:07.900Z,1.69
2022-11-13T05:31:34.311Z,1.46
2022-11-13T05:32:00.329Z,1.55
2022-11-13T05:32:26.468Z,1.56
2022-11-13T05:32:53.268Z,1.48
2022-11-13T05:33:19.429Z,1.58
2022-11-13T05:33:45.803Z,1.44
2022-11-13T05:34:12.026Z,1.58
2022-11-13T05:34:37.872Z,1.69
2022-11-13T05:35:04.004Z,1.52
2022-11-13T05:35:30.141Z,1.48
2022-11-13T05:35:55.946Z,1.52
2022-11-13T05:36:22.695Z,1.52
2022-11-13T05:36:48.539Z,1.49
2022-11-13T05:37:14.859Z,1.54
2022-11-13T05:37:40.670Z,1.46
2022-11-13T05:38:06.678Z,1.50
2022-11-13T05:38:32.897Z,1.61
2022-11-13T05:38:58.570Z,1.70
2022-11-13T05:39:24.739Z,1.59
2022-11-13T05:39:50.720Z,1.48
2022-11-13T05:40:17.010Z,1.60
2022-11-13T05:40:43.176Z,1.49
2022-11-13T05:41:16.282Z,1.63
2022-11-13T05:41:42.152Z,1.64
2022-11-13T05:42:08.018Z,1.51
2022-11-13T05:42:34.134Z,1.45
2022-11-13T05:43:00.433Z,1.39
2022-11-13T05:43:26.597Z,1.55
2022-11-13T05:43:59.048Z,1.56
2022-11-13T05:44:25.298Z,1.49
2022-11-13T05:44:51.273Z,1.54
2022-11-13T05:45:17.382Z,1.60
2022-11-13T05:45:43.345Z,1.61
2022-11-13T05:46:12.619Z,1.56
2022-11-13T05:46:38.522Z,1.54
2022-11-13T05:47:04.432Z,1.56
2022-11-13T05:47:30.529Z,1.54
2022-11-13T05:47:57.820Z,1.63
2022-11-13T05:48:23.605Z,1.66
2022-11-13T05:49:00.561Z,1.61
2022-11-13T05:49:26.575Z,1.66
2022-11-13T05:49:52.579Z,1.63
2022-11-13T05:50:20.941Z,1.59
2022-11-13T05:50:47.243Z,1.66
2022-11-13T05:51:19.141Z,1.42
2022-11-13T05:51:45.213Z,1.36
2022-11-13T05:52:11.135Z,1.50
2022-11-13T05:52:37.423Z,1.56
2022-11-13T05:53:03.249Z,1.60
2022-11-13T05:53:29.527Z,1.61
2022-11-13T05:53:56.312Z,1.61
2022-11-13T05:54:22.292Z,1.58
2022-11-13T05:54:48.533Z,1.54
2022-11-13T05:55:14.773Z,1.66
2022-11-13T05:55:40.515Z,1.63
2022-11-13T05:56:10.864Z,1.63
2022-11-13T05:56:37.723Z,1.79
2022-11-13T05:57:03.912Z,1.61
2022-11-13T05:57:29.632Z,1.71
2022-11-13T05:57:55.704Z,1.98
2022-11-13T05:58:21.936Z,1.83
2022-11-13T05:58:48.867Z,1.95
2022-11-13T05:59:14.604Z,1.86
2022-11-13T05:59:40.788Z,1.80
2022-11-13T06:00:07.555Z,1.80
2022-11-13T06:00:33.557Z,1.77
2022-11-13T06:01:13.473Z,1.67
2022-11-13T06:01:40.996Z,1.67